createdAt,value
2023-01-19T00:03:15.796Z,3.43
2023-01-19T00:06:39.606Z,3.70
2023-01-19T00:10:03.455Z,4.53
2023-01-19T00:13:27.640Z,4.00
2023-01-19T00:16:52.785Z,4.20
2023-01-19T00:20:17.137Z,4.30
2023-01-19T00:23:40.677Z,3.33
2023-01-19T00:27:04.728Z,3.03
2023-01-19T00:30:28.351Z,3.67
2023-01-19T00:33:53.507Z,3.33
2023-01-19T00:37:17.779Z,3.60
2023-01-19T00:40:41.684Z,3.60
2023-01-19T00:44:05.872Z,3.60
2023-01-19T00:47:29.753Z,3.90
2023-01-19T00:50:54.940Z,3.47
2023-01-19T00:54:18.949Z,3.80
2023-01-19T00:57:43.888Z,3.23
2023-01-19T01:01:07.516Z,3.27
2023-01-19T01:04:31.172Z,3.17
2023-01-19T01:07:56.378Z,3.00
2023-01-19T01:11:21.050Z,3.27
2023-01-19T01:14:44.870Z,3.10
2023-01-19T01:18:08.398Z,3.03
2023-01-19T01:21:34.555Z,2.97
2023-01-19T01:24:59.490Z,3.10
2023-01-19T01:28:23.427Z,3.10
2023-01-19T01:31:46.899Z,3.37
2023-01-19T01:35:11.822Z,2.97
2023-01-19T01:38:35.609Z,3.57
2023-01-19T01:42:00.829Z,3.93
2023-01-19T01:45:33.496Z,2.97
2023-01-19T01:49:05.164Z,2.80
2023-01-19T01:52:32.672Z,4.07
2023-01-19T01:55:56.546Z,3.53
2023-01-19T01:59:26.695Z,3.60
2023-01-19T02:02:53.462Z,3.63
2023-01-19T02:06:18.253Z,3.80
2023-01-19T02:09:59.787Z,3.50
2023-01-19T02:13:25.544Z,2.87
2023-01-19T02:16:50.835Z,3.03
2023-01-19T02:20:15.539Z,3.30
2023-01-19T02:23:45.996Z,3.63
2023-01-19T02:27:11.006Z,3.10
2023-01-19T02:30:36.677Z,3.43
2023-01-19T02:34:02.825Z,2.77
2023-01-19T02:37:30.884Z,3.63
2023-01-19T02:40:59.674Z,2.80
2023-01-19T02:44:26.658Z,2.70
2023-01-19T02:47:52.586Z,2.60
2023-01-19T02:51:19.276Z,3.07
2023-01-19T02:55:02.746Z,2.77
2023-01-19T02:58:35.298Z,3.00
2023-01-19T03:02:16.497Z,3.10
2023-01-19T03:05:56.762Z,3.07
2023-01-19T03:09:33.695Z,2.40
2023-01-19T03:13:05.916Z,2.97
2023-01-19T03:16:39.545Z,2.63
2023-01-19T03:20:05.968Z,2.63
2023-01-19T03:23:33.100Z,3.37
2023-01-19T03:27:05.234Z,2.70
2023-01-19T03:30:34.267Z,2.93
2023-01-19T03:34:04.396Z,2.77
2023-01-19T03:37:32.729Z,3.70
2023-01-19T03:41:01.327Z,3.60
2023-01-19T03:44:30.152Z,3.17
2023-01-19T03:47:55.603Z,3.10
2023-01-19T03:51:22.111Z,2.47
2023-01-19T03:54:45.727Z,2.77
2023-01-19T03:58:10.166Z,3.37
2023-01-19T04:01:33.918Z,3.20
2023-01-19T04:04:57.475Z,2.77
2023-01-19T04:08:22.969Z,2.70
2023-01-19T04:11:46.835Z,2.60
2023-01-19T04:15:11.212Z,2.63
2023-01-19T04:18:35.882Z,3.70
2023-01-19T04:21:59.661Z,2.47
2023-01-19T04:25:24.965Z,2.60
2023-01-19T04:28:48.492Z,2.23
2023-01-19T04:32:13.995Z,3.53
2023-01-19T04:35:38.172Z,2.87
2023-01-19T04:39:01.666Z,3.00
2023-01-19T04:42:27.547Z,3.13
2023-01-19T04:45:52.084Z,3.77
2023-01-19T04:49:16.261Z,3.40
2023-01-19T04:52:40.799Z,2.67
2023-01-19T04:56:04.708Z,2.83
2023-01-19T04:59:29.922Z,3.30
2023-01-19T05:02:53.929Z,3.10
2023-01-19T05:06:17.788Z,3.00
2023-01-19T05:09:41.736Z,3.07
2023-01-19T05:13:05.523Z,4.07
2023-01-19T05:16:30.759Z,3.50
2023-01-19T05:19:54.583Z,2.57
2023-01-19T05:23:18.441Z,2.70
2023-01-19T05:26:42.349Z,3.37
2023-01-19T05:30:07.033Z,3.70
2023-01-19T05:33:32.886Z,3.80
2023-01-19T05:36:56.588Z,3.87
2023-01-19T05:40:21.521Z,3.00
2023-01-19T05:43:45.302Z,3.60
2023-01-19T05:47:09.210Z,4.20
2023-01-19T05:50:35.672Z,3.83
2023-01-19T05:54:01.010Z,3.30
2023-01-19T05:57:25.198Z,3.70
2023-01-19T06:00:49.271Z,4.00
2023-01-19T06:04:13.956Z,4.17
2023-01-19T06:07:39.327Z,4.10
2023-01-19T06:11:02.915Z,3.97
2023-01-19T06:14:26.872Z,4.20
2023-01-19T06:17:50.710Z,4.33
2023-01-19T06:21:14.365Z,4.37
2023-01-19T06:24:39.734Z,4.70
2023-01-19T06:28:03.601Z,3.20
2023-01-19T06:31:27.212Z,3.70
2023-01-19T06:34:53.196Z,4.27
2023-01-19T06:38:18.507Z,3.33
2023-01-19T06:41:43.393Z,4.13
2023-01-19T06:45:12.179Z,3.80
2023-01-19T06:48:36.325Z,3.40
2023-01-19T06:52:00.315Z,3.63
2023-01-19T06:55:24.934Z,4.30
2023-01-19T06:58:53.095Z,3.87
2023-01-19T07:02:27.340Z,3.97
2023-01-19T07:05:56.760Z,3.77
2023-01-19T07:09:21.365Z,3.83
2023-01-19T07:12:47.281Z,3.30
2023-01-19T07:16:14.695Z,3.90
2023-01-19T07:19:38.826Z,3.07
2023-01-19T07:23:03.275Z,2.97
2023-01-19T07:26:28.121Z,3.10
2023-01-19T07:29:51.975Z,3.37
2023-01-19T07:33:17.110Z,3.30
2023-01-19T07:36:40.615Z,2.90
2023-01-19T07:40:04.735Z,2.70
2023-01-19T07:43:28.319Z,2.60
2023-01-19T07:46:52.251Z,2.57
2023-01-19T07:50:21.287Z,2.47
2023-01-19T07:53:46.158Z,2.67
2023-01-19T07:57:09.999Z,2.77
2023-01-19T08:00:34.155Z,2.67
2023-01-19T08:03:58.023Z,1.93
2023-01-19T08:07:23.311Z,2.70
2023-01-19T08:10:50.257Z,2.43
2023-01-19T08:14:14.149Z,2.10
2023-01-19T08:17:38.730Z,2.60
2023-01-19T08:21:02.801Z,2.60
2023-01-19T08:24:29.060Z,2.40
2023-01-19T08:27:57.454Z,2.77
2023-01-19T08:31:24.452Z,3.00
2023-01-19T08:34:48.692Z,2.83
2023-01-19T08:38:12.595Z,2.80
2023-01-19T08:41:37.785Z,3.13
2023-01-19T08:45:01.719Z,2.70
2023-01-19T08:48:25.968Z,2.37
2023-01-19T08:51:49.763Z,3.07
2023-01-19T08:55:13.553Z,2.90
2023-01-19T08:58:38.449Z,3.10
2023-01-19T09:02:02.388Z,3.30
2023-01-19T09:05:26.033Z,3.20
2023-01-19T09:08:49.984Z,3.27
2023-01-19T09:12:13.813Z,3.20
2023-01-19T09:15:39.439Z,3.63
2023-01-19T09:19:03.414Z,3.17
2023-01-19T09:22:26.911Z,3.43
2023-01-19T09:25:56.569Z,4.33
2023-01-19T09:29:20.574Z,3.30
2023-01-19T09:32:46.041Z,3.70
2023-01-19T09:36:10.736Z,4.00
2023-01-19T09:39:34.193Z,3.60
2023-01-19T09:43:04.596Z,3.70
2023-01-19T09:46:38.815Z,4.20
2023-01-19T09:50:11.616Z,4.00
2023-01-19T09:53:44.959Z,3.80
2023-01-19T09:57:12.266Z,2.90
2023-01-19T10:00:35.683Z,3.83
2023-01-19T10:04:18.464Z,3.93
2023-01-19T10:07:58.796Z,3.80
2023-01-19T10:11:51.296Z,3.60
2023-01-19T10:15:31.519Z,4.00
2023-01-19T10:18:59.353Z,3.60
2023-01-19T10:22:26.756Z,3.73
2023-01-19T10:25:52.726Z,3.90
2023-01-19T10:29:26.607Z,3.40
2023-01-19T10:32:51.578Z,3.60
2023-01-19T10:36:20.641Z,4.03
2023-01-19T10:39:47.185Z,3.90
2023-01-19T10:43:41.620Z,3.30
2023-01-19T10:47:12.692Z,3.70
2023-01-19T10:50:40.597Z,4.03
2023-01-19T10:54:05.569Z,4.10
2023-01-19T10:57:32.595Z,3.00
2023-01-19T11:01:13.318Z,2.70
2023-01-19T11:04:37.235Z,3.40
2023-01-19T11:08:01.465Z,3.70
2023-01-19T11:11:26.302Z,3.70
2023-01-19T11:14:53.479Z,2.93
2023-01-19T11:18:28.769Z,3.70
2023-01-19T11:21:53.220Z,3.60
2023-01-19T11:25:28.155Z,3.07
2023-01-19T11:28:54.677Z,3.00
2023-01-19T11:32:23.307Z,2.90
2023-01-19T11:35:49.885Z,3.53
2023-01-19T11:39:25.467Z,3.43
2023-01-19T11:42:49.193Z,3.77
2023-01-19T11:46:14.208Z,3.03
2023-01-19T11:49:45.067Z,3.40
2023-01-19T11:53:20.415Z,3.10
2023-01-19T11:56:45.239Z,3.30
2023-01-19T12:00:25.337Z,3.30
2023-01-19T12:03:54.862Z,3.30
2023-01-19T12:07:25.581Z,3.80
2023-01-19T12:10:52.016Z,3.23
2023-01-19T12:14:21.134Z,3.50
2023-01-19T12:17:49.811Z,3.27
2023-01-19T12:21:13.646Z,2.63
2023-01-19T12:24:48.007Z,2.90
2023-01-19T12:28:16.771Z,2.80
2023-01-19T12:31:42.993Z,2.70
2023-01-19T12:35:10.120Z,3.77
2023-01-19T12:38:46.091Z,3.40
2023-01-19T12:42:18.901Z,3.23
2023-01-19T12:45:48.035Z,2.83
2023-01-19T12:49:22.694Z,3.07
2023-01-19T12:52:57.114Z,2.90
2023-01-19T12:56:21.813Z,2.73
2023-01-19T12:59:46.129Z,2.90
2023-01-19T13:03:46.997Z,2.90
2023-01-19T13:07:17.895Z,3.03
2023-01-19T13:11:18.026Z,2.80
2023-01-19T13:14:43.489Z,2.27
2023-01-19T13:18:10.818Z,3.20
2023-01-19T13:21:39.590Z,2.43
2023-01-19T13:25:09.841Z,3.40
2023-01-19T13:28:42.967Z,2.23
2023-01-19T13:32:16.907Z,3.63
2023-01-19T13:35:41.213Z,3.20
2023-01-19T13:39:13.645Z,3.60
2023-01-19T13:42:39.536Z,3.43
2023-01-19T13:46:04.319Z,3.17
2023-01-19T13:49:31.690Z,3.80
2023-01-19T13:52:56.749Z,4.10
2023-01-19T13:56:24.723Z,4.00
2023-01-19T14:00:05.278Z,3.47
2023-01-19T14:03:35.092Z,3.00
2023-01-19T14:07:03.455Z,4.60
2023-01-19T14:10:27.583Z,3.97
2023-01-19T14:13:52.780Z,4.13
2023-01-19T14:17:29.010Z,4.10
2023-01-19T14:21:02.159Z,4.90
2023-01-19T14:24:29.636Z,6.13
2023-01-19T14:28:13.729Z,3.93
2023-01-19T14:31:46.255Z,4.10
2023-01-19T14:35:24.248Z,10.20
2023-01-19T14:38:49.716Z,5.13
2023-01-19T14:42:19.657Z,4.37
2023-01-19T14:45:48.762Z,3.73
2023-01-19T14:49:23.107Z,3.60
2023-01-19T14:52:53.760Z,3.73
2023-01-19T14:56:27.312Z,5.80
2023-01-19T14:59:52.247Z,5.80
2023-01-19T15:03:16.051Z,7.20
2023-01-19T15:06:45.747Z,5.30
2023-01-19T15:10:20.647Z,5.07
2023-01-19T15:13:46.029Z,4.10
2023-01-19T15:17:18.200Z,4.27
2023-01-19T15:20:42.048Z,3.63
2023-01-19T15:24:07.509Z,4.20
2023-01-19T15:27:31.398Z,3.60
2023-01-19T15:30:55.925Z,3.83
2023-01-19T15:34:20.186Z,3.70
2023-01-19T15:37:44.355Z,3.73
2023-01-19T15:41:14.764Z,3.60
2023-01-19T15:44:39.137Z,3.47
2023-01-19T15:48:05.056Z,3.70
2023-01-19T15:51:29.639Z,3.40
2023-01-19T15:54:53.503Z,3.63
2023-01-19T15:58:20.507Z,3.80
2023-01-19T16:01:44.911Z,3.70
2023-01-19T16:05:09.847Z,4.03
2023-01-19T16:08:33.987Z,2.80
2023-01-19T16:11:57.918Z,3.47
2023-01-19T16:15:23.651Z,3.43
2023-01-19T16:18:47.833Z,3.50
2023-01-19T16:22:12.406Z,3.70
2023-01-19T16:25:36.615Z,3.40
2023-01-19T16:29:02.106Z,3.10
2023-01-19T16:32:26.947Z,3.60
2023-01-19T16:35:51.070Z,4.33
2023-01-19T16:39:17.392Z,2.90
2023-01-19T16:42:41.855Z,4.30
2023-01-19T16:46:05.774Z,3.90
2023-01-19T16:49:30.929Z,4.00
2023-01-19T16:52:58.975Z,4.17
2023-01-19T16:56:23.377Z,4.50
2023-01-19T16:59:47.285Z,5.33
2023-01-19T17:03:10.729Z,3.50
2023-01-19T17:06:35.530Z,4.10
2023-01-19T17:09:59.028Z,4.67
2023-01-19T17:13:22.523Z,4.47
2023-01-19T17:16:46.336Z,4.50
2023-01-19T17:20:11.910Z,5.20
2023-01-19T17:23:38.398Z,6.60
2023-01-19T17:27:02.183Z,8.90
2023-01-19T17:30:26.055Z,9.30
2023-01-19T17:33:51.330Z,6.60
2023-01-19T17:37:15.087Z,6.67
2023-01-19T17:40:40.751Z,5.23
2023-01-19T17:44:06.232Z,5.90
2023-01-19T17:47:29.935Z,5.00
2023-01-19T17:50:54.162Z,6.00
2023-01-19T17:54:17.634Z,5.20
2023-01-19T17:57:42.406Z,5.90
2023-01-19T18:01:11.735Z,5.40
2023-01-19T18:04:39.067Z,6.60
2023-01-19T18:08:02.797Z,6.57
2023-01-19T18:11:27.699Z,6.97
2023-01-19T18:14:52.623Z,6.63
2023-01-19T18:18:16.461Z,5.83
2023-01-19T18:21:40.067Z,5.30
2023-01-19T18:25:03.655Z,4.47
2023-01-19T18:28:27.719Z,4.20
2023-01-19T18:31:52.592Z,3.27
2023-01-19T18:35:16.214Z,3.37
2023-01-19T18:38:41.115Z,3.70
2023-01-19T18:42:04.724Z,3.70
2023-01-19T18:45:28.175Z,3.40
2023-01-19T18:48:53.055Z,3.27
2023-01-19T18:52:16.561Z,3.50
2023-01-19T18:55:40.088Z,2.70
2023-01-19T18:59:05.034Z,4.40
2023-01-19T19:02:28.595Z,3.27
2023-01-19T19:05:53.610Z,3.67
2023-01-19T19:09:17.276Z,3.25
2023-01-19T19:12:41.742Z,3.27
2023-01-19T19:16:07.361Z,2.80
2023-01-19T19:19:30.974Z,3.10
2023-01-19T19:22:56.394Z,3.20
2023-01-19T19:26:20.126Z,4.47
2023-01-19T19:29:45.296Z,2.90
2023-01-19T19:33:09.445Z,2.93
2023-01-19T19:36:33.945Z,3.07
2023-01-19T19:40:00.060Z,3.37
2023-01-19T19:43:23.706Z,3.13
2023-01-19T19:46:47.680Z,5.30
2023-01-19T19:50:13.345Z,4.83
2023-01-19T19:53:40.068Z,5.37
2023-01-19T19:57:05.271Z,4.93
2023-01-19T20:00:29.318Z,4.00
2023-01-19T20:03:53.183Z,4.07
2023-01-19T20:07:17.983Z,4.77
2023-01-19T20:10:41.539Z,5.50
2023-01-19T20:14:09.396Z,6.30
2023-01-19T20:17:32.863Z,5.47
2023-01-19T20:20:56.648Z,5.57
2023-01-19T20:24:22.303Z,5.90
2023-01-19T20:27:46.101Z,5.80
2023-01-19T20:31:13.436Z,6.00
2023-01-19T20:34:36.872Z,5.00
2023-01-19T20:38:00.873Z,5.20
2023-01-19T20:41:25.741Z,5.27
2023-01-19T20:44:49.802Z,5.80
2023-01-19T20:48:14.910Z,5.00
2023-01-19T20:51:43.081Z,5.20
2023-01-19T20:55:08.810Z,5.03
2023-01-19T20:58:33.488Z,5.00
2023-01-19T21:01:57.385Z,5.07
2023-01-19T21:05:22.425Z,5.10
2023-01-19T21:08:46.462Z,4.53
2023-01-19T21:12:09.988Z,5.47
2023-01-19T21:15:33.831Z,4.53
2023-01-19T21:18:57.794Z,4.83
2023-01-19T21:22:22.659Z,4.67
2023-01-19T21:25:51.037Z,4.80
2023-01-19T21:29:14.441Z,4.40
2023-01-19T21:32:37.885Z,5.97
2023-01-19T21:36:01.411Z,5.43
2023-01-19T21:39:26.607Z,4.73
2023-01-19T21:42:50.045Z,5.63
2023-01-19T21:46:18.475Z,4.77
2023-01-19T21:49:42.686Z,4.63
2023-01-19T21:53:07.776Z,5.03
2023-01-19T21:56:33.381Z,5.20
2023-01-19T21:59:57.339Z,5.80
2023-01-19T22:03:20.854Z,6.37
2023-01-19T22:06:44.388Z,5.00
2023-01-19T22:10:09.523Z,7.67
2023-01-19T22:13:35.719Z,8.90
2023-01-19T22:16:59.204Z,8.57
2023-01-19T22:20:23.389Z,8.10
2023-01-19T22:23:50.891Z,6.93
2023-01-19T22:27:14.593Z,6.03
2023-01-19T22:30:39.556Z,5.97
2023-01-19T22:34:03.120Z,7.07
2023-01-19T22:37:26.611Z,9.27
2023-01-19T22:40:50.152Z,7.73
2023-01-19T22:44:16.596Z,7.77
2023-01-19T22:47:41.431Z,7.40
2023-01-19T22:51:05.207Z,6.70
2023-01-19T22:54:29.852Z,6.40
2023-01-19T22:57:53.345Z,6.50
2023-01-19T23:01:19.635Z,6.40
2023-01-19T23:04:44.499Z,5.50
2023-01-19T23:08:08.005Z,6.30
2023-01-19T23:11:36.236Z,6.27
2023-01-19T23:14:59.713Z,5.63
2023-01-19T23:18:23.709Z,5.17
2023-01-19T23:21:52.691Z,5.20
2023-01-19T23:25:16.593Z,9.07
2023-01-19T23:28:41.272Z,6.80
2023-01-19T23:32:05.009Z,5.50
2023-01-19T23:35:28.651Z,5.30
2023-01-19T23:38:56.397Z,6.03
2023-01-19T23:42:19.903Z,5.07
2023-01-19T23:45:43.345Z,5.33
2023-01-19T23:49:06.759Z,5.40
2023-01-19T23:52:30.299Z,5.87
2023-01-19T23:55:55.050Z,5.23
2023-01-19T23:59:18.553Z,5.63
